الصفحة الرئيسية
METAR-TAF:

METAR-TAF

مطار :

Rhino Camp, ناميبيا

دائرة عرض: 20-01-28S, خط طول: 13-50-45E, ارتفاع: 756 متر

مراقبة الطقس الحالي

تاريخ ووقت الإصدار 22 دقيقة قبل الساعة 08:00UTC
ريح 5 عقدة من الشمال الشرقي
درجة الحرارة 25°درجة مئوية
الرطوبة 61%
ضغط 1022 hPa
الرؤية 10 كم أو أكثر
الغيوم لا تقل 1500 م ولا وجود لمزنة ركامية السحاب الأسود

METAR: FYRN 190800Z 04005KT CAVOK 25/17 Q1022

زمن: 09:22 (08:22 UTC)


TAF: مفقودة

أرصاد الطقس والتوقعات من أكثر من 4000 مطار (تقارير الطقس للمطار METAR والتنبؤ بالطقس بالمطارTAF).

المحطات المتاحة هي النقط الصفراء والحمراء على الخريطة.

حرك المؤشر فوق النقطة لمعرفة اسم المحطة.

ثم انقر لمعرفة أرصاد وتوقعات الطقس.

لتغيير الخارطة: اضغط على الأزرار الخضراء مع رمز الصليب الأسود للتكبير. على الزر الأخضر مع شرطة للتصغير، أو على الأسهم الخضراء للخرائط المجاورة.


METAR-TAF: